Bonney, Texas
Current Conditions -  °F | °C
As of 1:53 AM on Thursday 29 Jan 2015 (Local Time) from KLBX Reporting Station
Moderate Fog Moderate Fog  
Wind Chill: 53°   Ceiling: 200
Heat Index: 53°   Visibility: 0.5mi
Dew Point: 53°   Wind: 6mph
Humidity: 100%   Direction: 190°S
Pressure: 30.18"   Gusts: NA
Location:  29.1898°N, 95.4754°W
Report Text: KLBX 290753Z AUTO 19005KT 1/2SM FG VV002 12/12 A3018 RMK AO2 SLP218 T01170117
Loading
Personal Weather Stations






























Interactive Weather Map New forecast layout! Learn more

10-Day Weather Forecast

Advertisements
Track Severe Weather on mobile